sensor_id;sensor_type;location;lat;lon;timestamp;pressure;altitude;pressure_sealevel;temperature;humidity
22580;BME280;11456;47.030;15.396;2023-05-17T00:01:47;96920.25;;;11.98;95.11
22580;BME280;11456;47.030;15.396;2023-05-17T00:04:13;96911.81;;;12.01;95.35
22580;BME280;11456;47.030;15.396;2023-05-17T00:06:40;96920.81;;;11.94;94.73
22580;BME280;11456;47.030;15.396;2023-05-17T00:09:06;96916.47;;;11.85;95.48
22580;BME280;11456;47.030;15.396;2023-05-17T00:11:33;96920.25;;;11.68;96.31
22580;BME280;11456;47.030;15.396;2023-05-17T00:14:00;96917.63;;;11.90;94.37
22580;BME280;11456;47.030;15.396;2023-05-17T00:16:26;96915.28;;;11.87;93.89
22580;BME280;11456;47.030;15.396;2023-05-17T00:18:53;96917.38;;;12.23;93.57
22580;BME280;11456;47.030;15.396;2023-05-17T00:21:20;96927.16;;;12.24;92.13
22580;BME280;11456;47.030;15.396;2023-05-17T00:23:46;96916.25;;;11.94;94.18
22580;BME280;11456;47.030;15.396;2023-05-17T00:26:13;96928.66;;;12.03;94.37
22580;BME280;11456;47.030;15.396;2023-05-17T00:28:40;96918.53;;;12.05;93.39
22580;BME280;11456;47.030;15.396;2023-05-17T00:31:07;96921.75;;;12.24;92.17
22580;BME280;11456;47.030;15.396;2023-05-17T00:33:33;96929.78;;;11.86;93.47
22580;BME280;11456;47.030;15.396;2023-05-17T00:36:00;96918.47;;;12.14;92.59
22580;BME280;11456;47.030;15.396;2023-05-17T00:38:26;96918.19;;;12.09;93.43
22580;BME280;11456;47.030;15.396;2023-05-17T00:40:53;96923.94;;;12.05;93.56
22580;BME280;11456;47.030;15.396;2023-05-17T00:43:20;96933.59;;;12.00;94.84
22580;BME280;11456;47.030;15.396;2023-05-17T00:45:46;96916.34;;;11.78;95.20
22580;BME280;11456;47.030;15.396;2023-05-17T00:48:14;96922.00;;;11.91;95.14
22580;BME280;11456;47.030;15.396;2023-05-17T00:50:41;96925.22;;;11.87;95.23
22580;BME280;11456;47.030;15.396;2023-05-17T00:53:08;96913.59;;;11.86;97.48
22580;BME280;11456;47.030;15.396;2023-05-17T00:55:35;96919.72;;;11.80;98.10
22580;BME280;11456;47.030;15.396;2023-05-17T00:58:01;96915.28;;;11.87;97.95
22580;BME280;11456;47.030;15.396;2023-05-17T01:00:28;96910.97;;;11.70;97.00
22580;BME280;11456;47.030;15.396;2023-05-17T01:02:54;96911.47;;;11.74;96.84
22580;BME280;11456;47.030;15.396;2023-05-17T01:05:21;96911.91;;;11.85;96.95
22580;BME280;11456;47.030;15.396;2023-05-17T01:07:48;96909.28;;;12.00;96.04
22580;BME280;11456;47.030;15.396;2023-05-17T01:10:14;96910.38;;;12.14;94.77
22580;BME280;11456;47.030;15.396;2023-05-17T01:15:33;96905.28;;;11.96;92.81
22580;BME280;11456;47.030;15.396;2023-05-17T01:20:38;96911.81;;;12.24;91.22
22580;BME280;11456;47.030;15.396;2023-05-17T01:28:37;96914.06;;;12.35;91.37
22580;BME280;11456;47.030;15.396;2023-05-17T01:31:04;96914.41;;;12.55;90.75
22580;BME280;11456;47.030;15.396;2023-05-17T01:33:31;96915.16;;;12.49;89.10
22580;BME280;11456;47.030;15.396;2023-05-17T01:35:59;96911.69;;;12.40;88.55
22580;BME280;11456;47.030;15.396;2023-05-17T01:38:26;96918.50;;;12.51;88.64
22580;BME280;11456;47.030;15.396;2023-05-17T01:43:45;96922.22;;;12.50;88.34
22580;BME280;11456;47.030;15.396;2023-05-17T01:48:43;96919.06;;;12.24;91.37
22580;BME280;11456;47.030;15.396;2023-05-17T01:51:16;96919.88;;;12.10;90.74
22580;BME280;11456;47.030;15.396;2023-05-17T01:53:47;96927.25;;;12.16;91.92
22580;BME280;11456;47.030;15.396;2023-05-17T01:56:15;96923.81;;;12.22;92.77
22580;BME280;11456;47.030;15.396;2023-05-17T01:58:45;96919.38;;;12.06;90.02
22580;BME280;11456;47.030;15.396;2023-05-17T02:01:15;96921.41;;;12.27;90.16
22580;BME280;11456;47.030;15.396;2023-05-17T02:03:47;96930.38;;;12.42;89.30
22580;BME280;11456;47.030;15.396;2023-05-17T02:06:14;96928.06;;;12.39;90.42
22580;BME280;11456;47.030;15.396;2023-05-17T02:08:41;96922.97;;;12.44;89.18
22580;BME280;11456;47.030;15.396;2023-05-17T02:11:07;96919.69;;;12.71;87.36
22580;BME280;11456;47.030;15.396;2023-05-17T02:13:34;96922.09;;;12.66;85.78
22580;BME280;11456;47.030;15.396;2023-05-17T02:16:01;96931.44;;;12.78;87.59
22580;BME280;11456;47.030;15.396;2023-05-17T02:18:27;96928.16;;;12.83;85.65
22580;BME280;11456;47.030;15.396;2023-05-17T02:20:54;96926.91;;;12.56;85.77
22580;BME280;11456;47.030;15.396;2023-05-17T02:23:21;96921.19;;;12.89;86.55
22580;BME280;11456;47.030;15.396;2023-05-17T02:25:51;96923.59;;;12.83;85.65
22580;BME280;11456;47.030;15.396;2023-05-17T02:28:17;96929.09;;;12.38;87.18
22580;BME280;11456;47.030;15.396;2023-05-17T02:30:44;96929.97;;;12.53;85.56
22580;BME280;11456;47.030;15.396;2023-05-17T02:33:11;96931.88;;;12.67;86.22
22580;BME280;11456;47.030;15.396;2023-05-17T02:35:38;96943.31;;;12.69;86.54
22580;BME280;11456;47.030;15.396;2023-05-17T02:38:05;96944.28;;;12.76;85.69
22580;BME280;11456;47.030;15.396;2023-05-17T02:40:31;96943.44;;;12.76;86.77
22580;BME280;11456;47.030;15.396;2023-05-17T02:43:01;96947.72;;;12.70;85.09
22580;BME280;11456;47.030;15.396;2023-05-17T02:45:27;96960.03;;;12.73;83.82
22580;BME280;11456;47.030;15.396;2023-05-17T02:47:54;96951.50;;;12.61;83.69
22580;BME280;11456;47.030;15.396;2023-05-17T02:50:21;96945.44;;;12.97;82.78
22580;BME280;11456;47.030;15.396;2023-05-17T02:52:48;96946.94;;;12.62;82.42
22580;BME280;11456;47.030;15.396;2023-05-17T02:55:14;96961.44;;;12.83;82.55
22580;BME280;11456;47.030;15.396;2023-05-17T02:57:41;96954.44;;;13.27;81.33
22580;BME280;11456;47.030;15.396;2023-05-17T03:00:08;96958.13;;;13.11;80.78
22580;BME280;11456;47.030;15.396;2023-05-17T03:02:35;96961.66;;;12.97;81.27
22580;BME280;11456;47.030;15.396;2023-05-17T03:05:03;96950.34;;;13.16;81.62
22580;BME280;11456;47.030;15.396;2023-05-17T03:07:30;96944.88;;;12.87;82.27
22580;BME280;11456;47.030;15.396;2023-05-17T03:09:57;96946.19;;;12.91;82.53
22580;BME280;11456;47.030;15.396;2023-05-17T03:12:28;96949.66;;;13.14;81.12
22580;BME280;11456;47.030;15.396;2023-05-17T03:14:55;96940.81;;;13.20;80.35
22580;BME280;11456;47.030;15.396;2023-05-17T03:17:22;96938.31;;;13.18;80.47
22580;BME280;11456;47.030;15.396;2023-05-17T03:19:49;96942.94;;;13.10;81.03
22580;BME280;11456;47.030;15.396;2023-05-17T03:22:16;96944.63;;;13.11;81.87
22580;BME280;11456;47.030;15.396;2023-05-17T03:24:42;96949.16;;;12.96;82.77
22580;BME280;11456;47.030;15.396;2023-05-17T03:27:09;96952.41;;;13.06;82.49
22580;BME280;11456;47.030;15.396;2023-05-17T03:29:36;96954.06;;;13.15;81.93
22580;BME280;11456;47.030;15.396;2023-05-17T03:32:03;96954.75;;;13.09;82.24
22580;BME280;11456;47.030;15.396;2023-05-17T03:34:30;96968.03;;;13.33;80.39
22580;BME280;11456;47.030;15.396;2023-05-17T03:36:57;96962.63;;;12.66;82.16
22580;BME280;11456;47.030;15.396;2023-05-17T03:39:23;96969.38;;;12.62;82.03
22580;BME280;11456;47.030;15.396;2023-05-17T03:41:50;96975.44;;;13.02;80.18
22580;BME280;11456;47.030;15.396;2023-05-17T03:44:17;96976.63;;;13.22;80.22
22580;BME280;11456;47.030;15.396;2023-05-17T03:46:44;96985.75;;;13.21;80.42
22580;BME280;11456;47.030;15.396;2023-05-17T03:49:12;96996.03;;;13.40;80.70
22580;BME280;11456;47.030;15.396;2023-05-17T03:51:39;96999.19;;;13.29;79.83
22580;BME280;11456;47.030;15.396;2023-05-17T03:54:06;97000.38;;;13.12;78.03
22580;BME280;11456;47.030;15.396;2023-05-17T03:56:32;97003.47;;;13.38;78.91
22580;BME280;11456;47.030;15.396;2023-05-17T03:58:59;97014.94;;;13.25;77.74
22580;BME280;11456;47.030;15.396;2023-05-17T04:01:25;97014.03;;;12.96;77.38
22580;BME280;11456;47.030;15.396;2023-05-17T04:03:52;97025.69;;;12.96;77.13
22580;BME280;11456;47.030;15.396;2023-05-17T04:06:20;97040.44;;;13.31;77.78
22580;BME280;11456;47.030;15.396;2023-05-17T04:08:47;97039.84;;;13.21;75.51
22580;BME280;11456;47.030;15.396;2023-05-17T04:11:14;97039.69;;;13.67;73.32
22580;BME280;11456;47.030;15.396;2023-05-17T04:13:42;97040.44;;;13.31;74.95
22580;BME280;11456;47.030;15.396;2023-05-17T04:16:08;97053.69;;;13.55;73.34
22580;BME280;11456;47.030;15.396;2023-05-17T04:18:38;97052.66;;;13.71;72.41
22580;BME280;11456;47.030;15.396;2023-05-17T04:21:05;97048.84;;;13.65;73.68
22580;BME280;11456;47.030;15.396;2023-05-17T04:23:33;97059.09;;;13.55;74.35
22580;BME280;11456;47.030;15.396;2023-05-17T04:26:01;97066.28;;;13.78;73.36
22580;BME280;11456;47.030;15.396;2023-05-17T04:28:30;97071.41;;;13.73;71.62
22580;BME280;11456;47.030;15.396;2023-05-17T04:30:57;97081.31;;;13.65;71.56
22580;BME280;11456;47.030;15.396;2023-05-17T04:33:25;97097.50;;;13.51;72.16
22580;BME280;11456;47.030;15.396;2023-05-17T04:35:55;97084.75;;;13.59;72.79
22580;BME280;11456;47.030;15.396;2023-05-17T04:38:23;97100.53;;;13.71;71.48
22580;BME280;11456;47.030;15.396;2023-05-17T04:40:50;97091.97;;;13.82;70.35
22580;BME280;11456;47.030;15.396;2023-05-17T04:43:17;97100.34;;;13.87;69.99
22580;BME280;11456;47.030;15.396;2023-05-17T04:45:45;97096.16;;;13.84;70.00
22580;BME280;11456;47.030;15.396;2023-05-17T04:48:12;97094.56;;;13.90;70.60
22580;BME280;11456;47.030;15.396;2023-05-17T04:50:38;97104.28;;;13.70;69.20
22580;BME280;11456;47.030;15.396;2023-05-17T04:53:06;97110.81;;;14.04;69.24
22580;BME280;11456;47.030;15.396;2023-05-17T04:55:35;97112.09;;;14.23;68.12
22580;BME280;11456;47.030;15.396;2023-05-17T04:58:01;97115.00;;;14.22;67.05
22580;BME280;11456;47.030;15.396;2023-05-17T05:00:29;97118.09;;;14.19;67.79
22580;BME280;11456;47.030;15.396;2023-05-17T05:03:01;97111.44;;;14.21;68.25
22580;BME280;11456;47.030;15.396;2023-05-17T05:05:31;97113.78;;;14.24;67.81
22580;BME280;11456;47.030;15.396;2023-05-17T05:07:57;97103.22;;;14.44;67.03
22580;BME280;11456;47.030;15.396;2023-05-17T05:10:25;97100.16;;;14.32;67.51
22580;BME280;11456;47.030;15.396;2023-05-17T05:12:54;97097.44;;;14.32;67.68
22580;BME280;11456;47.030;15.396;2023-05-17T05:15:22;97088.31;;;13.75;67.47
22580;BME280;11456;47.030;15.396;2023-05-17T05:17:53;97086.53;;;14.11;68.39
22580;BME280;11456;47.030;15.396;2023-05-17T05:20:20;97089.88;;;14.78;65.92
22580;BME280;11456;47.030;15.396;2023-05-17T05:22:47;97087.72;;;14.74;64.93
22580;BME280;11456;47.030;15.396;2023-05-17T05:25:16;97087.75;;;14.95;64.43
22580;BME280;11456;47.030;15.396;2023-05-17T05:27:43;97097.91;;;14.21;65.68
22580;BME280;11456;47.030;15.396;2023-05-17T05:30:11;97088.22;;;14.12;66.78
22580;BME280;11456;47.030;15.396;2023-05-17T05:32:38;97096.41;;;14.84;64.97
22580;BME280;11456;47.030;15.396;2023-05-17T05:35:05;97106.97;;;14.79;64.21
22580;BME280;11456;47.030;15.396;2023-05-17T05:37:32;97113.56;;;15.12;63.29
22580;BME280;11456;47.030;15.396;2023-05-17T05:39:58;97106.34;;;15.19;62.85
22580;BME280;11456;47.030;15.396;2023-05-17T05:42:25;97107.09;;;15.35;61.60
22580;BME280;11456;47.030;15.396;2023-05-17T05:44:52;97106.09;;;15.14;63.30
22580;BME280;11456;47.030;15.396;2023-05-17T05:47:21;97116.28;;;15.12;61.18
22580;BME280;11456;47.030;15.396;2023-05-17T05:49:47;97128.94;;;15.05;62.45
22580;BME280;11456;47.030;15.396;2023-05-17T05:52:14;97123.63;;;15.18;62.55
22580;BME280;11456;47.030;15.396;2023-05-17T05:54:41;97125.25;;;15.13;61.09
22580;BME280;11456;47.030;15.396;2023-05-17T05:57:08;97131.38;;;15.43;61.16
22580;BME280;11456;47.030;15.396;2023-05-17T05:59:35;97131.78;;;15.40;61.06
22580;BME280;11456;47.030;15.396;2023-05-17T06:02:02;97139.66;;;15.13;60.12
22580;BME280;11456;47.030;15.396;2023-05-17T06:04:29;97132.44;;;15.42;61.46
22580;BME280;11456;47.030;15.396;2023-05-17T06:07:10;97144.31;;;15.62;61.28
22580;BME280;11456;47.030;15.396;2023-05-17T06:09:36;97142.50;;;15.27;60.66
22580;BME280;11456;47.030;15.396;2023-05-17T06:12:03;97154.75;;;15.44;61.54
22580;BME280;11456;47.030;15.396;2023-05-17T06:14:29;97159.81;;;15.47;59.95
22580;BME280;11456;47.030;15.396;2023-05-17T06:16:56;97160.03;;;15.67;59.66
22580;BME280;11456;47.030;15.396;2023-05-17T06:19:22;97159.69;;;15.34;58.02
22580;BME280;11456;47.030;15.396;2023-05-17T06:21:49;97162.16;;;15.29;60.30
22580;BME280;11456;47.030;15.396;2023-05-17T06:24:16;97166.94;;;15.48;59.14
22580;BME280;11456;47.030;15.396;2023-05-17T06:26:43;97172.72;;;15.45;59.44
22580;BME280;11456;47.030;15.396;2023-05-17T06:29:09;97190.50;;;15.26;57.71
22580;BME280;11456;47.030;15.396;2023-05-17T06:31:36;97197.09;;;15.17;59.31
22580;BME280;11456;47.030;15.396;2023-05-17T06:34:02;97195.06;;;15.25;57.78
22580;BME280;11456;47.030;15.396;2023-05-17T06:36:29;97207.88;;;15.32;58.12
22580;BME280;11456;47.030;15.396;2023-05-17T06:38:58;97208.53;;;15.34;56.91
22580;BME280;11456;47.030;15.396;2023-05-17T06:41:24;97217.03;;;15.09;58.40
22580;BME280;11456;47.030;15.396;2023-05-17T06:43:51;97211.28;;;15.19;57.40
22580;BME280;11456;47.030;15.396;2023-05-17T06:46:17;97219.16;;;14.78;59.22
22580;BME280;11456;47.030;15.396;2023-05-17T06:48:44;97228.69;;;14.74;58.24
22580;BME280;11456;47.030;15.396;2023-05-17T06:51:14;97221.28;;;15.18;58.39
22580;BME280;11456;47.030;15.396;2023-05-17T06:53:41;97211.34;;;15.25;57.17
22580;BME280;11456;47.030;15.396;2023-05-17T06:56:08;97216.06;;;15.38;57.75
22580;BME280;11456;47.030;15.396;2023-05-17T06:58:34;97223.22;;;15.24;56.63
22580;BME280;11456;47.030;15.396;2023-05-17T07:01:01;97230.69;;;15.01;57.29
22580;BME280;11456;47.030;15.396;2023-05-17T07:03:27;97233.97;;;15.33;57.19
22580;BME280;11456;47.030;15.396;2023-05-17T07:05:54;97235.13;;;15.23;56.63
22580;BME280;11456;47.030;15.396;2023-05-17T07:08:21;97245.06;;;15.16;56.21
22580;BME280;11456;47.030;15.396;2023-05-17T07:10:49;97251.78;;;15.20;56.93
22580;BME280;11456;47.030;15.396;2023-05-17T07:13:16;97234.38;;;15.30;56.95
22580;BME280;11456;47.030;15.396;2023-05-17T07:15:42;97247.44;;;15.41;56.24
22580;BME280;11456;47.030;15.396;2023-05-17T07:18:09;97253.53;;;15.64;55.17
22580;BME280;11456;47.030;15.396;2023-05-17T07:20:36;97251.22;;;15.61;55.27
22580;BME280;11456;47.030;15.396;2023-05-17T07:23:02;97265.31;;;15.71;55.31
22580;BME280;11456;47.030;15.396;2023-05-17T07:25:29;97253.66;;;15.56;54.87
22580;BME280;11456;47.030;15.396;2023-05-17T07:27:56;97259.91;;;15.35;55.10
22580;BME280;11456;47.030;15.396;2023-05-17T07:30:23;97252.78;;;15.34;55.43
22580;BME280;11456;47.030;15.396;2023-05-17T07:32:50;97258.91;;;15.21;56.55
22580;BME280;11456;47.030;15.396;2023-05-17T07:35:17;97261.44;;;15.44;56.08
22580;BME280;11456;47.030;15.396;2023-05-17T07:37:51;97262.94;;;15.47;54.41
22580;BME280;11456;47.030;15.396;2023-05-17T07:40:18;97264.78;;;15.61;54.16
22580;BME280;11456;47.030;15.396;2023-05-17T07:42:44;97278.47;;;15.53;53.89
22580;BME280;11456;47.030;15.396;2023-05-17T07:45:11;97274.59;;;15.83;52.54
22580;BME280;11456;47.030;15.396;2023-05-17T07:47:37;97262.41;;;15.73;54.39
22580;BME280;11456;47.030;15.396;2023-05-17T07:50:04;97263.25;;;15.73;53.49
22580;BME280;11456;47.030;15.396;2023-05-17T07:52:31;97259.38;;;16.10;52.43
22580;BME280;11456;47.030;15.396;2023-05-17T07:54:57;97278.81;;;15.86;52.77
22580;BME280;11456;47.030;15.396;2023-05-17T07:57:24;97272.91;;;15.82;53.25
22580;BME280;11456;47.030;15.396;2023-05-17T07:59:52;97274.47;;;16.13;51.98
22580;BME280;11456;47.030;15.396;2023-05-17T08:02:19;97283.06;;;16.16;51.93
22580;BME280;11456;47.030;15.396;2023-05-17T08:04:45;97276.13;;;16.14;52.79
22580;BME280;11456;47.030;15.396;2023-05-17T08:07:12;97267.47;;;16.25;52.12
22580;BME280;11456;47.030;15.396;2023-05-17T08:09:38;97277.06;;;16.55;51.38
22580;BME280;11456;47.030;15.396;2023-05-17T08:12:05;97290.06;;;15.61;52.63
22580;BME280;11456;47.030;15.396;2023-05-17T08:14:32;97291.94;;;16.59;51.28
22580;BME280;11456;47.030;15.396;2023-05-17T08:16:58;97298.50;;;16.16;50.68
22580;BME280;11456;47.030;15.396;2023-05-17T08:19:25;97299.03;;;16.26;51.26
22580;BME280;11456;47.030;15.396;2023-05-17T08:21:52;97310.53;;;16.28;50.95
22580;BME280;11456;47.030;15.396;2023-05-17T08:24:18;97305.91;;;16.50;51.48
22580;BME280;11456;47.030;15.396;2023-05-17T08:26:47;97313.84;;;16.23;51.91
22580;BME280;11456;47.030;15.396;2023-05-17T08:29:14;97304.50;;;15.33;52.61
22580;BME280;11456;47.030;15.396;2023-05-17T08:31:40;97320.00;;;15.89;52.97
22580;BME280;11456;47.030;15.396;2023-05-17T08:34:07;97332.53;;;16.12;52.25
22580;BME280;11456;47.030;15.396;2023-05-17T08:36:34;97325.03;;;15.71;52.38
22580;BME280;11456;47.030;15.396;2023-05-17T08:39:00;97322.72;;;15.89;52.41
22580;BME280;11456;47.030;15.396;2023-05-17T08:41:27;97329.00;;;16.11;51.42
22580;BME280;11456;47.030;15.396;2023-05-17T08:43:54;97333.03;;;16.22;52.59
22580;BME280;11456;47.030;15.396;2023-05-17T08:46:22;97321.53;;;15.77;52.44
22580;BME280;11456;47.030;15.396;2023-05-17T08:48:49;97325.31;;;15.97;51.10
22580;BME280;11456;47.030;15.396;2023-05-17T08:51:18;97330.25;;;16.36;51.39
22580;BME280;11456;47.030;15.396;2023-05-17T08:53:44;97330.72;;;16.19;51.42
22580;BME280;11456;47.030;15.396;2023-05-17T08:56:13;97330.91;;;16.17;50.65
22580;BME280;11456;47.030;15.396;2023-05-17T08:58:41;97336.19;;;16.47;49.85
22580;BME280;11456;47.030;15.396;2023-05-17T09:01:22;97336.78;;;16.21;52.06
22580;BME280;11456;47.030;15.396;2023-05-17T09:03:51;97338.03;;;16.18;51.98
22580;BME280;11456;47.030;15.396;2023-05-17T09:06:20;97335.88;;;16.14;52.85
22580;BME280;11456;47.030;15.396;2023-05-17T09:08:47;97331.44;;;15.49;52.90
22580;BME280;11456;47.030;15.396;2023-05-17T09:11:26;97333.06;;;15.79;54.65
22580;BME280;11456;47.030;15.396;2023-05-17T09:13:56;97330.59;;;15.84;54.56
22580;BME280;11456;47.030;15.396;2023-05-17T09:16:22;97333.19;;;15.92;54.36
22580;BME280;11456;47.030;15.396;2023-05-17T09:18:56;97326.59;;;15.80;54.01
22580;BME280;11456;47.030;15.396;2023-05-17T09:21:23;97330.72;;;15.97;54.08
22580;BME280;11456;47.030;15.396;2023-05-17T09:23:50;97329.59;;;16.07;52.41
22580;BME280;11456;47.030;15.396;2023-05-17T09:26:41;97339.53;;;15.99;51.05
22580;BME280;11456;47.030;15.396;2023-05-17T09:29:11;97336.41;;;15.81;51.03
22580;BME280;11456;47.030;15.396;2023-05-17T09:31:39;97344.56;;;16.02;50.60
22580;BME280;11456;47.030;15.396;2023-05-17T09:34:06;97341.66;;;16.25;50.39
22580;BME280;11456;47.030;15.396;2023-05-17T09:36:34;97348.56;;;16.28;50.30
22580;BME280;11456;47.030;15.396;2023-05-17T09:39:04;97351.31;;;16.07;50.25
22580;BME280;11456;47.030;15.396;2023-05-17T09:41:50;97348.44;;;16.15;49.31
22580;BME280;11456;47.030;15.396;2023-05-17T09:44:21;97348.84;;;16.12;49.98
22580;BME280;11456;47.030;15.396;2023-05-17T09:46:50;97354.16;;;15.98;49.72
22580;BME280;11456;47.030;15.396;2023-05-17T09:49:18;97361.50;;;15.83;51.04
22580;BME280;11456;47.030;15.396;2023-05-17T09:51:45;97364.75;;;16.15;50.74
22580;BME280;11456;47.030;15.396;2023-05-17T09:54:12;97357.50;;;16.00;50.91
22580;BME280;11456;47.030;15.396;2023-05-17T09:56:39;97361.13;;;15.86;50.59
22580;BME280;11456;47.030;15.396;2023-05-17T09:59:10;97359.03;;;15.88;50.08
22580;BME280;11456;47.030;15.396;2023-05-17T10:01:37;97365.63;;;15.79;50.21
22580;BME280;11456;47.030;15.396;2023-05-17T10:04:07;97363.63;;;15.88;51.82
22580;BME280;11456;47.030;15.396;2023-05-17T10:06:34;97380.41;;;16.13;51.55
22580;BME280;11456;47.030;15.396;2023-05-17T10:09:13;97374.06;;;16.06;50.20
22580;BME280;11456;47.030;15.396;2023-05-17T10:11:45;97378.06;;;16.10;49.65
22580;BME280;11456;47.030;15.396;2023-05-17T10:14:14;97381.56;;;16.25;50.35
22580;BME280;11456;47.030;15.396;2023-05-17T10:16:43;97383.88;;;16.49;49.73
22580;BME280;11456;47.030;15.396;2023-05-17T10:19:10;97384.91;;;16.48;48.46
22580;BME280;11456;47.030;15.396;2023-05-17T10:21:37;97391.75;;;16.87;48.88
22580;BME280;11456;47.030;15.396;2023-05-17T10:24:04;97383.03;;;16.98;49.21
22580;BME280;11456;47.030;15.396;2023-05-17T10:26:31;97384.28;;;16.95;47.98
22580;BME280;11456;47.030;15.396;2023-05-17T10:28:59;97380.53;;;17.03;47.69
22580;BME280;11456;47.030;15.396;2023-05-17T10:31:30;97390.47;;;16.82;47.81
22580;BME280;11456;47.030;15.396;2023-05-17T10:34:02;97392.00;;;16.64;47.79
22580;BME280;11456;47.030;15.396;2023-05-17T10:36:29;97400.44;;;16.54;48.17
22580;BME280;11456;47.030;15.396;2023-05-17T10:38:56;97406.91;;;16.53;47.44
22580;BME280;11456;47.030;15.396;2023-05-17T10:41:25;97411.31;;;16.75;47.16
22580;BME280;11456;47.030;15.396;2023-05-17T10:43:52;97401.78;;;16.01;48.59
22580;BME280;11456;47.030;15.396;2023-05-17T10:46:20;97400.38;;;15.69;49.63
22580;BME280;11456;47.030;15.396;2023-05-17T10:48:52;97406.38;;;16.00;50.00
22580;BME280;11456;47.030;15.396;2023-05-17T10:51:23;97402.00;;;16.21;50.20
22580;BME280;11456;47.030;15.396;2023-05-17T10:56:41;97416.50;;;16.07;49.41
22580;BME280;11456;47.030;15.396;2023-05-17T11:01:48;97418.41;;;15.91;49.84
22580;BME280;11456;47.030;15.396;2023-05-17T11:04:19;97424.66;;;16.28;48.43
22580;BME280;11456;47.030;15.396;2023-05-17T11:06:46;97419.63;;;16.25;49.29
22580;BME280;11456;47.030;15.396;2023-05-17T11:09:13;97417.53;;;16.06;48.81
22580;BME280;11456;47.030;15.396;2023-05-17T11:12:03;97418.72;;;16.18;49.33
22580;BME280;11456;47.030;15.396;2023-05-17T11:14:42;97422.81;;;16.14;49.06
22580;BME280;11456;47.030;15.396;2023-05-17T11:17:15;97430.25;;;15.69;49.05
22580;BME280;11456;47.030;15.396;2023-05-17T11:20:04;97430.88;;;15.86;48.89
22580;BME280;11456;47.030;15.396;2023-05-17T11:22:38;97438.09;;;15.93;48.71
22580;BME280;11456;47.030;15.396;2023-05-17T11:25:10;97437.69;;;15.96;48.63
22580;BME280;11456;47.030;15.396;2023-05-17T11:27:38;97437.75;;;15.38;49.10
22580;BME280;11456;47.030;15.396;2023-05-17T11:30:47;97441.41;;;15.59;49.28
22580;BME280;11456;47.030;15.396;2023-05-17T11:32:57;97444.03;;;16.03;49.70
22580;BME280;11456;47.030;15.396;2023-05-17T11:35:26;97453.22;;;16.02;48.82
22580;BME280;11456;47.030;15.396;2023-05-17T11:37:53;97452.06;;;15.76;48.17
22580;BME280;11456;47.030;15.396;2023-05-17T11:40:36;97460.22;;;15.46;49.84
22580;BME280;11456;47.030;15.396;2023-05-17T11:43:16;97460.78;;;15.71;48.54
22580;BME280;11456;47.030;15.396;2023-05-17T11:45:44;97465.19;;;15.72;48.42
22580;BME280;11456;47.030;15.396;2023-05-17T11:48:11;97478.25;;;15.83;48.17
22580;BME280;11456;47.030;15.396;2023-05-17T11:50:39;97475.56;;;15.69;48.38
22580;BME280;11456;47.030;15.396;2023-05-17T11:53:06;97481.75;;;15.77;49.34
22580;BME280;11456;47.030;15.396;2023-05-17T11:55:33;97485.28;;;15.34;51.34
22580;BME280;11456;47.030;15.396;2023-05-17T11:58:03;97481.56;;;15.64;49.25
22580;BME280;11456;47.030;15.396;2023-05-17T12:00:30;97493.69;;;15.97;50.28
22580;BME280;11456;47.030;15.396;2023-05-17T12:02:57;97501.91;;;15.68;49.70
22580;BME280;11456;47.030;15.396;2023-05-17T12:05:24;97510.06;;;16.19;49.30
22580;BME280;11456;47.030;15.396;2023-05-17T12:07:51;97505.72;;;15.74;50.89
22580;BME280;11456;47.030;15.396;2023-05-17T12:10:20;97513.91;;;16.10;50.24
22580;BME280;11456;47.030;15.396;2023-05-17T12:12:47;97514.22;;;16.36;50.09
22580;BME280;11456;47.030;15.396;2023-05-17T12:15:17;97512.53;;;16.35;47.96
22580;BME280;11456;47.030;15.396;2023-05-17T12:17:43;97522.47;;;16.28;48.98
22580;BME280;11456;47.030;15.396;2023-05-17T12:20:11;97521.81;;;15.75;49.18
22580;BME280;11456;47.030;15.396;2023-05-17T12:22:50;97532.13;;;15.65;48.42
22580;BME280;11456;47.030;15.396;2023-05-17T12:25:21;97521.06;;;15.81;47.87
22580;BME280;11456;47.030;15.396;2023-05-17T12:27:50;97534.63;;;15.96;48.67
22580;BME280;11456;47.030;15.396;2023-05-17T12:30:17;97544.84;;;15.79;48.25
22580;BME280;11456;47.030;15.396;2023-05-17T12:32:44;97545.34;;;15.68;48.65
22580;BME280;11456;47.030;15.396;2023-05-17T12:35:11;97549.91;;;15.82;48.37
22580;BME280;11456;47.030;15.396;2023-05-17T12:37:38;97549.66;;;15.40;49.16
22580;BME280;11456;47.030;15.396;2023-05-17T12:40:05;97560.53;;;15.40;49.67
22580;BME280;11456;47.030;15.396;2023-05-17T12:42:32;97564.22;;;14.64;50.95
22580;BME280;11456;47.030;15.396;2023-05-17T12:44:59;97565.56;;;15.28;49.85
22580;BME280;11456;47.030;15.396;2023-05-17T12:47:32;97569.13;;;15.29;49.08
22580;BME280;11456;47.030;15.396;2023-05-17T12:49:59;97574.53;;;15.29;49.43
22580;BME280;11456;47.030;15.396;2023-05-17T12:52:25;97583.41;;;14.54;50.17
22580;BME280;11456;47.030;15.396;2023-05-17T12:54:58;97582.28;;;14.94;51.10
22580;BME280;11456;47.030;15.396;2023-05-17T12:57:24;97590.59;;;14.93;49.92
22580;BME280;11456;47.030;15.396;2023-05-17T12:59:51;97593.38;;;15.07;50.94
22580;BME280;11456;47.030;15.396;2023-05-17T13:02:18;97586.75;;;14.87;51.61
22580;BME280;11456;47.030;15.396;2023-05-17T13:04:45;97594.38;;;15.06;51.78
22580;BME280;11456;47.030;15.396;2023-05-17T13:07:19;97594.91;;;15.24;52.61
22580;BME280;11456;47.030;15.396;2023-05-17T13:09:47;97605.97;;;15.00;52.64
22580;BME280;11456;47.030;15.396;2023-05-17T13:12:20;97595.41;;;15.05;53.44
22580;BME280;11456;47.030;15.396;2023-05-17T13:14:48;97600.72;;;15.21;53.57
22580;BME280;11456;47.030;15.396;2023-05-17T13:19:44;97604.88;;;15.09;53.08